Time;durP1;ratioP1;P1;durP2;ratioP2;P2;SDS_P1;SDS_P2;PMS_P1;PMS_P2;Temp;Humidity;BMP_temperature;BMP_pressure;BME280_temperature;BME280_humidity;BME280_pressure;Samples;Min_cycle;Max_cycle;Signal;HPM_P1;HPM_P2
2022/07/07 00:01:35;;;;;;;;;;;15.40;99.90;;;;;;5037707;28;19912;-71
2022/07/07 00:04:02;;;;;;;;;;;15.40;99.90;;;;;;5037850;28;19920;-71
2022/07/07 00:06:28;;;;;;;;;;;15.40;99.90;;;;;;5037950;28;19916;-71
2022/07/07 00:08:54;;;;;;;;;;;15.50;99.90;;;;;;5036980;28;20393;-72
2022/07/07 00:11:24;;;;;;;;;;;15.50;99.90;;;;;;5036122;28;19971;-72
2022/07/07 00:13:49;;;;;;;;;;;15.50;99.90;;;;;;5038285;28;19909;-72
2022/07/07 00:16:15;;;;;;;;;;;15.50;99.90;;;;;;5037995;28;19992;-72
2022/07/07 00:18:41;;;;;;;;;;;15.60;99.90;;;;;;5039185;28;19944;-72
2022/07/07 00:21:06;;;;;;;;;;;15.60;99.90;;;;;;5039412;28;19905;-72
2022/07/07 00:23:32;;;;;;;;;;;15.60;99.90;;;;;;5037687;28;19917;-72
2022/07/07 00:25:58;;;;;;;;;;;15.60;99.90;;;;;;5037022;28;19956;-71
2022/07/07 00:28:23;;;;;;;;;;;15.60;99.90;;;;;;5038032;28;20007;-71
2022/07/07 00:30:49;;;;;;;;;;;15.70;99.90;;;;;;5039105;28;19905;-72
2022/07/07 00:33:14;;;;;;;;;;;15.60;99.90;;;;;;5049458;28;19912;-71
2022/07/07 00:35:40;;;;;;;;;;;15.60;99.90;;;;;;5049337;28;19905;-70
2022/07/07 00:38:06;;;;;;;;;;;15.60;99.90;;;;;;5040311;28;19952;-72
2022/07/07 00:40:32;;;;;;;;;;;15.70;99.90;;;;;;5037761;28;19956;-71
2022/07/07 00:42:57;;;;;;;;;;;15.70;99.90;;;;;;5035334;28;20366;-70
2022/07/07 00:45:24;;;;;;;;;;;15.70;99.90;;;;;;5036979;28;19913;-71
2022/07/07 00:47:50;;;;;;;;;;;15.70;99.90;;;;;;5037121;28;19905;-71
2022/07/07 00:50:16;;;;;;;;;;;15.70;99.90;;;;;;5036861;28;19905;-70
2022/07/07 00:52:41;;;;;;;;;;;15.70;99.90;;;;;;5036634;28;20381;-71
2022/07/07 00:55:10;;;;;;;;;;;15.70;99.90;;;;;;5036124;28;19924;-71
2022/07/07 00:57:36;;;;;;;;;;;15.80;99.90;;;;;;5036711;28;19951;-71
2022/07/07 01:00:07;;;;;;;;;;;15.80;99.90;;;;;;5037206;28;19912;-72
2022/07/07 01:02:32;;;;;;;;;;;15.80;99.90;;;;;;5036813;28;19944;-72
2022/07/07 01:04:59;;;;;;;;;;;15.90;99.90;;;;;;5036667;28;19951;-73
2022/07/07 01:07:26;;;;;;;;;;;15.90;99.90;;;;;;5035655;28;19909;-72
2022/07/07 01:09:53;;;;;;;;;;;15.80;99.90;;;;;;5035451;28;19905;-73
2022/07/07 01:12:18;;;;;;;;;;;15.80;99.90;;;;;;5037030;28;19963;-73
2022/07/07 01:14:44;;;;;;;;;;;15.90;99.90;;;;;;5030925;28;20321;-72
2022/07/07 01:17:09;;;;;;;;;;;15.80;99.90;;;;;;5023165;28;19920;-73
2022/07/07 01:19:35;;;;;;;;;;;15.80;99.90;;;;;;5032496;28;19906;-73
2022/07/07 01:22:03;;;;;;;;;;;15.90;99.90;;;;;;5018251;28;19906;-72
2022/07/07 01:24:29;;;;;;;;;;;15.90;99.90;;;;;;5019391;28;19916;-72
2022/07/07 01:27:05;;;;;;;;;;;15.90;99.90;;;;;;5028045;28;19905;-73
2022/07/07 01:29:37;;;;;;;;;;;15.90;99.90;;;;;;5018755;28;19912;-73
2022/07/07 01:32:04;;;;;;;;;;;15.90;99.90;;;;;;5016027;28;20004;-72
2022/07/07 01:34:30;;;;;;;;;;;15.90;99.90;;;;;;5015138;28;19913;-72
2022/07/07 01:36:55;;;;;;;;;;;16.00;99.90;;;;;;5030492;28;20278;-72
2022/07/07 01:39:21;;;;;;;;;;;16.00;99.90;;;;;;5015171;28;19905;-72
2022/07/07 01:41:46;;;;;;;;;;;16.00;99.90;;;;;;5015304;28;19910;-72
2022/07/07 01:44:12;;;;;;;;;;;16.00;99.90;;;;;;5014826;28;20365;-72
2022/07/07 01:46:37;;;;;;;;;;;16.00;99.90;;;;;;5014065;28;19906;-72
2022/07/07 01:49:03;;;;;;;;;;;16.10;99.90;;;;;;5016681;28;19912;-73
2022/07/07 01:51:28;;;;;;;;;;;16.10;99.90;;;;;;5018013;28;19944;-72
2022/07/07 01:53:54;;;;;;;;;;;16.10;99.90;;;;;;5018683;28;19913;-72
2022/07/07 01:56:19;;;;;;;;;;;16.10;99.90;;;;;;5018967;28;20259;-73
2022/07/07 01:58:45;;;;;;;;;;;16.10;99.90;;;;;;5017504;28;19960;-72
2022/07/07 02:01:10;;;;;;;;;;;16.10;99.90;;;;;;5017018;28;19906;-72
2022/07/07 02:03:36;;;;;;;;;;;16.20;99.90;;;;;;5015954;28;19905;-73
2022/07/07 02:06:01;;;;;;;;;;;16.20;99.90;;;;;;5017657;28;19913;-73
2022/07/07 02:08:27;;;;;;;;;;;16.10;99.90;;;;;;5016252;28;20244;-72
2022/07/07 02:13:36;;;;;;;;;;;16.20;99.90;;;;;;5017468;28;19990;-72
2022/07/07 02:16:02;;;;;;;;;;;16.10;99.90;;;;;;5017937;28;20359;-72
2022/07/07 02:18:28;;;;;;;;;;;16.20;99.90;;;;;;5018440;28;19956;-73
2022/07/07 02:20:54;;;;;;;;;;;16.20;99.90;;;;;;5019478;28;19905;-73
2022/07/07 02:23:19;;;;;;;;;;;16.20;99.90;;;;;;5035824;28;19996;-73
2022/07/07 02:25:45;;;;;;;;;;;16.20;99.90;;;;;;5022463;28;19949;-72
2022/07/07 02:28:11;;;;;;;;;;;16.10;99.90;;;;;;5020610;28;19913;-72
2022/07/07 02:30:37;;;;;;;;;;;16.20;99.90;;;;;;5022259;28;19913;-73
2022/07/07 02:33:02;;;;;;;;;;;16.10;99.90;;;;;;5021368;28;19905;-73
2022/07/07 02:35:28;;;;;;;;;;;16.20;99.90;;;;;;5038224;28;19928;-72
2022/07/07 02:37:53;;;;;;;;;;;16.10;99.90;;;;;;5022150;28;20004;-72
2022/07/07 02:40:19;;;;;;;;;;;16.20;99.90;;;;;;5021827;28;19912;-72
2022/07/07 02:42:44;;;;;;;;;;;16.20;99.90;;;;;;5016169;28;19971;-73
2022/07/07 02:45:10;;;;;;;;;;;16.30;99.90;;;;;;5016302;28;19913;-72
2022/07/07 02:47:35;;;;;;;;;;;16.30;99.90;;;;;;5015872;28;19905;-73
2022/07/07 02:50:01;;;;;;;;;;;16.30;99.90;;;;;;5015918;28;20274;-73
2022/07/07 02:52:26;;;;;;;;;;;16.30;99.90;;;;;;5014300;28;19909;-72
2022/07/07 02:54:52;;;;;;;;;;;16.30;99.90;;;;;;5015862;28;20366;-72
2022/07/07 02:57:17;;;;;;;;;;;16.30;99.90;;;;;;5015649;28;19920;-73
2022/07/07 02:59:43;;;;;;;;;;;16.30;99.90;;;;;;5015620;28;20370;-72
2022/07/07 03:02:08;;;;;;;;;;;16.30;99.90;;;;;;5030545;28;20421;-72
2022/07/07 03:04:34;;;;;;;;;;;16.30;99.90;;;;;;5015591;28;20267;-72
2022/07/07 03:06:59;;;;;;;;;;;16.20;99.90;;;;;;5015868;28;19956;-72
2022/07/07 03:09:25;;;;;;;;;;;16.20;99.90;;;;;;5015757;28;19905;-72
2022/07/07 03:11:50;;;;;;;;;;;16.20;99.90;;;;;;5031141;28;20279;-73
2022/07/07 03:14:16;;;;;;;;;;;16.20;99.90;;;;;;5018285;28;19909;-72
2022/07/07 03:19:13;;;;;;;;;;;16.10;99.90;;;;;;5011686;28;20428;-57
2022/07/07 03:21:39;;;;;;;;;;;16.10;99.90;;;;;;5013517;28;19909;-58
2022/07/07 03:24:04;;;;;;;;;;;16.10;99.90;;;;;;5013429;28;19906;-58
2022/07/07 03:26:30;;;;;;;;;;;16.10;99.90;;;;;;5013473;28;20290;-58
2022/07/07 03:28:55;;;;;;;;;;;16.10;99.90;;;;;;5013849;28;19906;-56
2022/07/07 03:31:21;;;;;;;;;;;16.00;99.90;;;;;;5014088;28;20374;-57
2022/07/07 03:33:46;;;;;;;;;;;16.00;99.90;;;;;;5013404;28;19941;-57
2022/07/07 03:36:12;;;;;;;;;;;16.00;99.90;;;;;;5013345;28;19959;-54
2022/07/07 03:38:38;;;;;;;;;;;16.00;99.90;;;;;;5013609;28;19913;-58
2022/07/07 03:41:03;;;;;;;;;;;16.00;99.90;;;;;;5013661;28;19913;-58
2022/07/07 03:43:29;;;;;;;;;;;16.00;99.90;;;;;;5013646;28;19905;-58
2022/07/07 03:45:54;;;;;;;;;;;16.00;99.90;;;;;;5013831;28;19906;-55
2022/07/07 03:48:20;;;;;;;;;;;16.00;99.90;;;;;;5013460;28;19954;-59
2022/07/07 03:50:45;;;;;;;;;;;16.00;99.90;;;;;;5013645;28;20003;-55
2022/07/07 03:53:11;;;;;;;;;;;16.00;99.90;;;;;;5013576;28;19995;-60
2022/07/07 03:55:36;;;;;;;;;;;16.00;99.90;;;;;;5013508;28;20401;-58
2022/07/07 03:58:02;;;;;;;;;;;16.00;99.90;;;;;;5013537;28;19953;-58
2022/07/07 04:00:27;;;;;;;;;;;16.00;99.90;;;;;;5013412;28;20368;-59
2022/07/07 04:02:53;;;;;;;;;;;16.10;99.90;;;;;;5013193;28;19906;-58
2022/07/07 04:05:18;;;;;;;;;;;16.10;99.90;;;;;;5013388;28;19905;-59
2022/07/07 04:07:45;;;;;;;;;;;16.10;99.90;;;;;;5013280;28;20351;-59
2022/07/07 04:10:10;;;;;;;;;;;16.10;99.90;;;;;;5014145;28;19990;-58
2022/07/07 04:12:36;;;;;;;;;;;16.10;99.90;;;;;;5013290;28;20314;-58
2022/07/07 04:15:01;;;;;;;;;;;16.10;99.90;;;;;;5013216;28;19906;-57
2022/07/07 04:17:27;;;;;;;;;;;16.10;99.90;;;;;;5013005;28;20012;-55
2022/07/07 04:19:52;;;;;;;;;;;16.10;99.90;;;;;;5013089;28;20316;-58
2022/07/07 04:22:18;;;;;;;;;;;16.10;99.90;;;;;;5013076;28;19916;-59
2022/07/07 04:24:43;;;;;;;;;;;16.10;99.90;;;;;;5013160;28;19920;-58
2022/07/07 04:27:10;;;;;;;;;;;16.10;99.90;;;;;;5013855;28;19905;-57
2022/07/07 04:29:35;;;;;;;;;;;16.10;99.90;;;;;;5013464;28;20325;-55
2022/07/07 04:32:01;;;;;;;;;;;16.10;99.90;;;;;;5016367;28;19933;-57
2022/07/07 04:34:27;;;;;;;;;;;16.10;99.90;;;;;;5016717;28;20290;-56
2022/07/07 04:36:52;;;;;;;;;;;16.00;99.90;;;;;;5016833;28;20305;-57
2022/07/07 04:39:18;;;;;;;;;;;16.10;99.90;;;;;;5017451;28;19909;-59
2022/07/07 04:41:43;;;;;;;;;;;16.10;99.90;;;;;;5017255;28;19905;-55
2022/07/07 04:44:09;;;;;;;;;;;16.10;99.90;;;;;;5018145;28;19912;-57
2022/07/07 04:46:34;;;;;;;;;;;16.00;99.90;;;;;;5019268;28;19905;-58
2022/07/07 04:49:00;;;;;;;;;;;16.10;99.90;;;;;;5015711;28;20271;-56
2022/07/07 04:51:26;;;;;;;;;;;16.20;99.90;;;;;;5016666;28;19945;-54
2022/07/07 04:53:51;;;;;;;;;;;16.10;99.90;;;;;;5016480;28;20298;-58
2022/07/07 04:56:17;;;;;;;;;;;16.20;99.90;;;;;;5016289;28;19916;-55
2022/07/07 04:58:42;;;;;;;;;;;16.10;99.90;;;;;;5016054;28;19916;-56
2022/07/07 05:01:08;;;;;;;;;;;16.20;99.90;;;;;;5016802;28;20247;-54
2022/07/07 05:03:34;;;;;;;;;;;16.10;99.90;;;;;;5015738;28;20007;-60
2022/07/07 05:05:59;;;;;;;;;;;16.20;99.90;;;;;;5015983;28;19905;-60
2022/07/07 05:08:25;;;;;;;;;;;16.10;99.90;;;;;;5016084;28;19906;-60
2022/07/07 05:10:50;;;;;;;;;;;16.10;99.90;;;;;;5015716;28;20256;-60
2022/07/07 05:13:16;;;;;;;;;;;16.10;99.90;;;;;;5015869;28;19952;-59
2022/07/07 05:15:41;;;;;;;;;;;16.10;99.90;;;;;;5016340;28;19913;-59
2022/07/07 05:18:07;;;;;;;;;;;16.10;99.90;;;;;;5015681;28;20303;-60
2022/07/07 05:20:32;;;;;;;;;;;16.10;99.90;;;;;;5016270;28;19905;-59
2022/07/07 05:22:58;;;;;;;;;;;16.10;99.90;;;;;;5016145;28;19910;-58
2022/07/07 05:25:23;;;;;;;;;;;16.10;99.90;;;;;;5015924;28;20370;-58
2022/07/07 05:27:49;;;;;;;;;;;16.10;99.90;;;;;;5016070;28;19905;-60
2022/07/07 05:30:15;;;;;;;;;;;16.10;99.90;;;;;;5015828;28;20277;-57
2022/07/07 05:32:40;;;;;;;;;;;16.10;99.90;;;;;;5015576;28;19905;-59
2022/07/07 05:35:06;;;;;;;;;;;16.20;99.90;;;;;;5015544;28;19912;-56
2022/07/07 05:37:31;;;;;;;;;;;16.20;99.90;;;;;;5015324;28;19916;-56
2022/07/07 05:39:57;;;;;;;;;;;16.20;99.90;;;;;;5015537;28;19905;-58
2022/07/07 05:42:23;;;;;;;;;;;16.20;99.90;;;;;;5014128;28;19905;-59
2022/07/07 05:44:48;;;;;;;;;;;16.20;99.90;;;;;;5015347;28;19931;-58
2022/07/07 05:47:14;;;;;;;;;;;16.20;99.90;;;;;;5015271;28;19955;-60
2022/07/07 05:49:39;;;;;;;;;;;16.20;99.90;;;;;;5015220;28;19905;-60
2022/07/07 05:52:05;;;;;;;;;;;16.20;99.90;;;;;;5015322;28;19906;-58
2022/07/07 05:54:30;;;;;;;;;;;16.20;99.90;;;;;;5015154;28;19911;-60
2022/07/07 05:56:56;;;;;;;;;;;16.20;99.90;;;;;;5015362;28;19906;-59
2022/07/07 05:59:21;;;;;;;;;;;16.20;99.90;;;;;;5014660;28;19951;-59
2022/07/07 06:01:47;;;;;;;;;;;16.10;99.90;;;;;;5015518;28;20283;-59
2022/07/07 06:04:12;;;;;;;;;;;16.10;99.90;;;;;;5014794;28;19968;-60
2022/07/07 06:06:38;;;;;;;;;;;16.10;99.90;;;;;;5005558;28;19925;-58
2022/07/07 06:09:03;;;;;;;;;;;16.20;99.90;;;;;;5026830;28;20267;-58
2022/07/07 06:11:29;;;;;;;;;;;16.20;99.90;;;;;;5034451;28;19912;-58
2022/07/07 06:13:54;;;;;;;;;;;16.20;99.90;;;;;;5006842;28;19916;-58
2022/07/07 06:16:38;;;;;;;;;;;16.30;99.90;;;;;;5001308;28;19920;-59
2022/07/07 06:19:08;;;;;;;;;;;16.30;99.90;;;;;;5014269;28;19913;-59
2022/07/07 06:21:34;;;;;;;;;;;16.40;99.90;;;;;;5014322;28;19910;-57
2022/07/07 06:24:00;;;;;;;;;;;16.40;99.90;;;;;;5017579;28;19909;-59
2022/07/07 06:26:25;;;;;;;;;;;16.50;99.90;;;;;;5013889;28;19909;-60
2022/07/07 06:28:51;;;;;;;;;;;16.60;99.90;;;;;;5014259;28;19955;-58
2022/07/07 06:31:17;;;;;;;;;;;16.60;99.90;;;;;;5021793;28;19948;-58
2022/07/07 06:33:42;;;;;;;;;;;16.70;99.90;;;;;;5013469;28;20350;-59
2022/07/07 06:36:08;;;;;;;;;;;16.80;99.90;;;;;;5013246;28;19909;-59
2022/07/07 06:38:33;;;;;;;;;;;16.80;99.90;;;;;;5014044;28;19988;-59
2022/07/07 06:40:59;;;;;;;;;;;16.80;99.90;;;;;;5014046;28;19912;-59
2022/07/07 06:43:25;;;;;;;;;;;16.80;99.90;;;;;;5014431;28;20354;-60
2022/07/07 06:45:50;;;;;;;;;;;16.80;99.90;;;;;;5014624;28;19912;-59
2022/07/07 06:48:16;;;;;;;;;;;16.80;99.90;;;;;;5013745;28;19949;-59
2022/07/07 06:50:42;;;;;;;;;;;16.80;99.90;;;;;;5014827;28;19992;-57
2022/07/07 06:53:07;;;;;;;;;;;16.80;99.90;;;;;;5014809;28;20079;-59
2022/07/07 06:55:33;;;;;;;;;;;16.80;99.90;;;;;;5014766;28;19909;-58
2022/07/07 06:57:58;;;;;;;;;;;16.80;99.90;;;;;;5014771;28;19909;-59
2022/07/07 07:00:24;;;;;;;;;;;16.80;99.90;;;;;;5015128;28;19905;-59
2022/07/07 07:02:50;;;;;;;;;;;16.80;99.90;;;;;;5015544;28;20318;-58
2022/07/07 07:05:16;;;;;;;;;;;16.90;99.90;;;;;;5015164;28;20279;-60
2022/07/07 07:07:41;;;;;;;;;;;17.00;99.90;;;;;;5014945;28;19912;-58
2022/07/07 07:10:08;;;;;;;;;;;17.00;99.90;;;;;;5014543;28;19905;-59
2022/07/07 07:12:34;;;;;;;;;;;17.10;99.90;;;;;;5014465;28;19914;-59
2022/07/07 07:14:59;;;;;;;;;;;17.10;99.90;;;;;;5014493;28;19905;-59
2022/07/07 07:17:25;;;;;;;;;;;17.10;99.90;;;;;;5013876;28;19914;-59
2022/07/07 07:19:50;;;;;;;;;;;17.20;99.90;;;;;;5014154;28;19905;-60
2022/07/07 07:22:16;;;;;;;;;;;17.20;99.90;;;;;;5015016;28;19951;-59
2022/07/07 07:24:41;;;;;;;;;;;17.40;99.90;;;;;;5015643;28;20366;-59
2022/07/07 07:27:07;;;;;;;;;;;17.60;99.90;;;;;;5015723;28;19909;-59
2022/07/07 07:29:32;;;;;;;;;;;17.80;99.90;;;;;;5015786;28;19905;-60
2022/07/07 07:31:58;;;;;;;;;;;17.90;99.90;;;;;;5014505;28;19909;-60
2022/07/07 07:34:23;;;;;;;;;;;17.90;99.90;;;;;;5014768;28;19905;-61
2022/07/07 07:36:49;;;;;;;;;;;18.10;99.90;;;;;;5014944;28;19905;-59
2022/07/07 07:39:14;;;;;;;;;;;18.10;99.90;;;;;;5014859;28;19905;-59
2022/07/07 07:41:40;;;;;;;;;;;17.90;99.90;;;;;;5014891;28;19905;-59
2022/07/07 07:44:06;;;;;;;;;;;17.80;99.90;;;;;;5015261;28;19912;-60
2022/07/07 07:46:31;;;;;;;;;;;17.50;99.90;;;;;;5004278;28;19909;-59
2022/07/07 07:48:59;;;;;;;;;;;17.40;99.90;;;;;;5009335;28;19906;-59
2022/07/07 07:51:25;;;;;;;;;;;17.20;99.90;;;;;;5013653;28;20362;-59
2022/07/07 07:53:50;;;;;;;;;;;17.10;99.90;;;;;;5014928;28;19905;-60
2022/07/07 07:56:16;;;;;;;;;;;17.00;99.90;;;;;;5014594;28;19911;-59
2022/07/07 07:58:41;;;;;;;;;;;17.10;99.90;;;;;;5015248;28;19909;-60
2022/07/07 08:01:07;;;;;;;;;;;17.30;99.90;;;;;;5014560;28;20385;-59
2022/07/07 08:03:33;;;;;;;;;;;17.40;99.90;;;;;;5013991;28;19928;-60
2022/07/07 08:05:58;;;;;;;;;;;17.50;99.90;;;;;;5016184;28;20388;-60
2022/07/07 08:08:24;;;;;;;;;;;17.70;99.90;;;;;;5018313;28;19905;-60
2022/07/07 08:10:49;;;;;;;;;;;17.90;99.90;;;;;;5019094;28;19905;-59
2022/07/07 08:13:15;;;;;;;;;;;17.90;99.90;;;;;;5018347;28;19905;-60
2022/07/07 08:15:41;;;;;;;;;;;17.90;99.90;;;;;;5018491;28;20336;-59
2022/07/07 08:18:06;;;;;;;;;;;17.70;99.90;;;;;;5018899;28;19913;-60
2022/07/07 08:20:32;;;;;;;;;;;17.60;99.90;;;;;;5018514;28;20057;-59
2022/07/07 08:22:57;;;;;;;;;;;17.50;99.90;;;;;;5019069;28;19916;-60
2022/07/07 08:25:23;;;;;;;;;;;17.60;99.90;;;;;;5018623;28;19912;-60
2022/07/07 08:27:48;;;;;;;;;;;17.60;99.90;;;;;;5017240;28;20421;-60
2022/07/07 08:30:14;;;;;;;;;;;17.60;99.90;;;;;;5017713;28;19955;-60
2022/07/07 08:32:43;;;;;;;;;;;17.80;99.90;;;;;;5017812;28;19906;-59
2022/07/07 08:35:09;;;;;;;;;;;17.80;99.90;;;;;;5017591;28;19948;-59
2022/07/07 08:37:34;;;;;;;;;;;17.80;99.90;;;;;;5017368;28;19909;-60
2022/07/07 08:40:00;;;;;;;;;;;17.80;99.90;;;;;;5018204;28;19949;-60
2022/07/07 08:42:25;;;;;;;;;;;17.90;99.90;;;;;;5017963;28;19905;-60
2022/07/07 08:44:51;;;;;;;;;;;18.00;99.90;;;;;;5018991;28;19906;-60
2022/07/07 08:47:17;;;;;;;;;;;18.10;99.90;;;;;;5017485;28;19996;-60
2022/07/07 08:49:42;;;;;;;;;;;18.20;99.90;;;;;;5017199;28;20063;-59
2022/07/07 08:52:08;;;;;;;;;;;18.20;99.90;;;;;;5017514;28;19956;-60
2022/07/07 08:54:36;;;;;;;;;;;18.40;99.90;;;;;;5017473;28;20306;-60
2022/07/07 08:57:01;;;;;;;;;;;18.50;99.90;;;;;;5017598;28;20376;-60
2022/07/07 08:59:27;;;;;;;;;;;18.70;99.90;;;;;;5017354;28;19905;-58
2022/07/07 09:01:55;;;;;;;;;;;18.90;99.90;;;;;;5017445;28;19916;-59
2022/07/07 09:04:21;;;;;;;;;;;18.90;99.90;;;;;;5017397;28;19956;-58
2022/07/07 09:06:53;;;;;;;;;;;18.90;99.90;;;;;;5016879;28;20366;-60
2022/07/07 09:09:36;;;;;;;;;;;19.00;99.90;;;;;;5016143;28;19906;-60
2022/07/07 09:12:03;;;;;;;;;;;19.30;99.90;;;;;;5016140;28;19931;-57
2022/07/07 09:14:40;;;;;;;;;;;19.50;99.90;;;;;;5014447;28;19910;-58
2022/07/07 09:17:14;;;;;;;;;;;19.70;99.90;;;;;;5012846;28;19914;-58
2022/07/07 09:19:40;;;;;;;;;;;19.70;99.90;;;;;;5053814;22;19920;-71
2022/07/07 09:22:06;;;;;;;;;;;19.70;99.90;;;;;;5034673;28;20341;-70
2022/07/07 09:24:31;;;;;;;;;;;19.60;99.90;;;;;;5033997;28;19954;-70
2022/07/07 09:26:57;;;;;;;;;;;19.40;99.90;;;;;;5035258;28;19905;-70
2022/07/07 09:29:23;;;;;;;;;;;19.10;99.90;;;;;;5053108;28;19905;-70
2022/07/07 09:32:08;;;;;;;;;;;19.00;99.90;;;;;;5055770;28;19904;-70
2022/07/07 09:34:34;;;;;;;;;;;18.70;99.90;;;;;;5055520;28;19905;-70
2022/07/07 09:39:46;;;;;;;;;;;18.10;99.90;;;;;;5055493;28;19912;-70
2022/07/07 09:42:18;;;;;;;;;;;17.90;99.90;;;;;;5055698;28;19935;-70
2022/07/07 09:44:45;;;;;;;;;;;17.80;99.90;;;;;;5055124;28;19912;-70
2022/07/07 09:47:10;;;;;;;;;;;17.70;99.90;;;;;;5054044;28;19905;-70
2022/07/07 09:49:43;;;;;;;;;;;17.70;99.90;;;;;;5055256;28;19954;-70
2022/07/07 09:52:18;;;;;;;;;;;17.70;99.90;;;;;;5057044;28;19904;-70
2022/07/07 09:54:48;;;;;;;;;;;17.70;99.90;;;;;;5060986;28;20374;-70
2022/07/07 09:57:13;;;;;;;;;;;17.70;99.90;;;;;;5062608;28;19948;-71
2022/07/07 09:59:41;;;;;;;;;;;17.70;99.90;;;;;;5055655;28;19912;-71
2022/07/07 10:02:08;;;;;;;;;;;17.70;99.90;;;;;;5055015;28;19905;-70
2022/07/07 10:04:34;;;;;;;;;;;17.90;99.90;;;;;;5053303;28;19904;-70
2022/07/07 10:07:00;;;;;;;;;;;18.10;99.90;;;;;;5054610;28;20286;-70
2022/07/07 10:09:26;;;;;;;;;;;18.30;99.90;;;;;;5041054;28;19909;-70
2022/07/07 10:11:52;;;;;;;;;;;18.50;99.90;;;;;;5035098;28;19905;-70
2022/07/07 10:14:20;;;;;;;;;;;18.50;99.90;;;;;;5035181;28;19905;-70
2022/07/07 10:16:47;;;;;;;;;;;18.60;99.90;;;;;;5035827;28;19913;-71
2022/07/07 10:19:14;;;;;;;;;;;18.70;99.90;;;;;;5034019;28;19952;-71
2022/07/07 10:21:40;;;;;;;;;;;18.80;99.90;;;;;;5033661;28;19905;-70
2022/07/07 10:24:06;;;;;;;;;;;18.90;99.90;;;;;;5033902;28;19916;-71
2022/07/07 10:26:38;;;;;;;;;;;19.00;99.90;;;;;;5034881;28;19905;-71
2022/07/07 10:29:04;;;;;;;;;;;19.30;99.90;;;;;;5033581;28;20381;-71
2022/07/07 10:31:30;;;;;;;;;;;19.50;99.90;;;;;;5034574;28;19905;-71
2022/07/07 10:34:03;;;;;;;;;;;19.60;99.90;;;;;;5034339;28;20293;-71
2022/07/07 10:36:49;;;;;;;;;;;19.70;99.90;;;;;;5034226;28;19905;-71
2022/07/07 10:39:15;;;;;;;;;;;19.90;99.90;;;;;;5026708;28;19923;-71
2022/07/07 10:41:41;;;;;;;;;;;20.10;99.90;;;;;;5034165;28;20312;-70
2022/07/07 10:44:08;;;;;;;;;;;20.30;99.90;;;;;;5034097;28;19906;-70
2022/07/07 10:46:34;;;;;;;;;;;20.30;99.90;;;;;;5034047;28;20347;-71
2022/07/07 10:49:20;;;;;;;;;;;20.20;99.90;;;;;;5066073;28;20277;-71
2022/07/07 10:51:50;;;;;;;;;;;20.00;99.90;;;;;;5033652;28;19987;-71
2022/07/07 10:54:16;;;;;;;;;;;19.90;99.90;;;;;;5034385;28;19927;-71
2022/07/07 10:56:51;;;;;;;;;;;19.90;99.90;;;;;;5033884;28;19909;-71
2022/07/07 10:59:17;;;;;;;;;;;19.90;99.90;;;;;;5033854;28;19996;-71
2022/07/07 11:02:01;;;;;;;;;;;19.90;99.90;;;;;;5033819;28;19905;-71
2022/07/07 11:04:42;;;;;;;;;;;19.90;99.90;;;;;;5066332;28;19951;-71
2022/07/07 11:07:22;;;;;;;;;;;20.10;99.90;;;;;;5034595;28;19984;-70
2022/07/07 11:09:58;;;;;;;;;;;20.20;99.90;;;;;;5033976;28;20285;-70
2022/07/07 11:12:37;;;;;;;;;;;20.20;99.90;;;;;;5035397;28;19990;-70
2022/07/07 11:15:17;;;;;;;;;;;20.10;99.90;;;;;;5037406;28;19959;-70
2022/07/07 11:17:52;;;;;;;;;;;19.90;99.90;;;;;;5033387;28;19958;-71
2022/07/07 11:20:18;;;;;;;;;;;19.70;99.90;;;;;;5034030;28;20277;-70
2022/07/07 11:22:48;;;;;;;;;;;19.60;99.90;;;;;;5033891;28;20358;-71
2022/07/07 11:25:15;;;;;;;;;;;19.60;99.90;;;;;;5034061;28;19911;-71
2022/07/07 11:27:41;;;;;;;;;;;19.60;99.90;;;;;;5033911;28;19905;-71
2022/07/07 11:30:07;;;;;;;;;;;19.60;99.90;;;;;;5033986;28;19955;-71
2022/07/07 11:32:40;;;;;;;;;;;19.60;99.90;;;;;;5033726;28;19928;-71
2022/07/07 11:35:12;;;;;;;;;;;19.30;99.90;;;;;;5033756;28;19936;-71
2022/07/07 11:37:38;;;;;;;;;;;19.30;99.90;;;;;;5033856;28;20007;-70
2022/07/07 11:40:24;;;;;;;;;;;19.20;99.90;;;;;;5036567;28;19905;-70
2022/07/07 11:42:50;;;;;;;;;;;19.20;99.90;;;;;;5037779;28;19905;-70
2022/07/07 11:45:22;;;;;;;;;;;19.00;99.90;;;;;;5038358;28;20321;-70
2022/07/07 11:47:49;;;;;;;;;;;18.70;99.90;;;;;;5037545;28;19905;-70
2022/07/07 11:50:14;;;;;;;;;;;18.40;99.90;;;;;;5038175;28;20008;-70
2022/07/07 11:52:51;;;;;;;;;;;18.30;99.90;;;;;;5038683;28;19952;-70
2022/07/07 11:55:18;;;;;;;;;;;18.30;99.90;;;;;;5041579;28;19905;-70
2022/07/07 11:57:49;;;;;;;;;;;18.20;99.90;;;;;;5048673;28;19909;-71
2022/07/07 12:00:15;;;;;;;;;;;18.10;99.90;;;;;;5046698;28;20058;-71
2022/07/07 12:02:41;;;;;;;;;;;17.90;99.90;;;;;;5039170;28;19909;-71
2022/07/07 12:05:07;;;;;;;;;;;17.70;99.90;;;;;;5037235;28;19937;-70
2022/07/07 12:07:33;;;;;;;;;;;17.70;99.90;;;;;;5037082;28;19932;-70
2022/07/07 12:09:58;;;;;;;;;;;17.70;99.90;;;;;;5037723;28;19905;-71
2022/07/07 12:12:25;;;;;;;;;;;17.70;99.90;;;;;;5037739;28;20358;-71
2022/07/07 12:14:51;;;;;;;;;;;17.60;99.90;;;;;;5069093;28;19905;-70
2022/07/07 12:17:34;;;;;;;;;;;17.50;99.90;;;;;;5036846;28;19917;-70
2022/07/07 12:20:00;;;;;;;;;;;17.50;99.90;;;;;;5036600;28;20447;-70
2022/07/07 12:22:33;;;;;;;;;;;17.60;99.90;;;;;;5027988;28;19909;-70
2022/07/07 12:24:59;;;;;;;;;;;17.70;99.90;;;;;;5035071;28;19916;-70
2022/07/07 12:27:25;;;;;;;;;;;17.90;99.90;;;;;;5036698;28;19909;-70
2022/07/07 12:30:04;;;;;;;;;;;18.10;99.90;;;;;;5036529;28;19909;-71
2022/07/07 12:32:30;;;;;;;;;;;18.40;99.90;;;;;;5016966;28;19912;-71
2022/07/07 12:34:55;;;;;;;;;;;18.60;99.90;;;;;;5018779;28;19910;-71
2022/07/07 12:37:38;;;;;;;;;;;18.70;99.90;;;;;;5018198;28;19909;-71
2022/07/07 12:40:04;;;;;;;;;;;18.80;99.90;;;;;;5027117;28;20337;-72
2022/07/07 12:42:33;;;;;;;;;;;18.70;99.90;;;;;;5051814;28;19969;-71
2022/07/07 12:45:08;;;;;;;;;;;18.80;99.90;;;;;;5035211;28;19905;-71
2022/07/07 12:47:34;;;;;;;;;;;18.70;99.90;;;;;;5033952;28;20000;-71
2022/07/07 12:49:59;;;;;;;;;;;18.80;99.90;;;;;;5036427;28;20382;-71
2022/07/07 12:52:25;;;;;;;;;;;18.90;99.90;;;;;;5035699;28;19966;-71
2022/07/07 12:54:55;;;;;;;;;;;18.90;99.90;;;;;;5033090;28;20378;-71
2022/07/07 12:57:25;;;;;;;;;;;19.00;99.90;;;;;;5041188;28;19916;-72
2022/07/07 12:59:50;;;;;;;;;;;18.90;99.90;;;;;;5050183;28;19905;-70
2022/07/07 13:02:16;;;;;;;;;;;18.90;99.90;;;;;;5056679;28;20419;-70
2022/07/07 13:04:43;;;;;;;;;;;18.80;99.90;;;;;;5056861;28;19943;-70
2022/07/07 13:07:08;;;;;;;;;;;18.50;99.90;;;;;;5044877;28;20079;-70
2022/07/07 13:09:34;;;;;;;;;;;18.20;99.90;;;;;;5043173;28;19944;-71
2022/07/07 13:12:00;;;;;;;;;;;18.10;99.90;;;;;;5036024;28;19971;-70
2022/07/07 13:14:25;;;;;;;;;;;18.20;99.90;;;;;;5034709;28;19909;-70
2022/07/07 13:16:51;;;;;;;;;;;18.20;99.90;;;;;;5029618;28;19912;-70
2022/07/07 13:19:17;;;;;;;;;;;18.10;99.90;;;;;;5015646;28;19913;-70
2022/07/07 13:21:42;;;;;;;;;;;18.20;99.90;;;;;;5054600;28;19999;-70
2022/07/07 13:24:08;;;;;;;;;;;18.00;99.90;;;;;;5055534;28;19962;-70
2022/07/07 13:26:34;;;;;;;;;;;18.00;99.90;;;;;;5055677;28;19905;-70
2022/07/07 13:28:59;;;;;;;;;;;18.00;99.90;;;;;;5055261;28;19912;-70
2022/07/07 13:31:25;;;;;;;;;;;18.00;99.90;;;;;;5054908;28;19909;-71
2022/07/07 13:33:50;;;;;;;;;;;18.00;99.90;;;;;;5043706;28;20020;-72
2022/07/07 13:36:16;;;;;;;;;;;18.10;99.90;;;;;;5041252;28;19952;-72
2022/07/07 13:38:41;;;;;;;;;;;18.20;99.90;;;;;;5049189;28;20396;-72
2022/07/07 13:41:07;;;;;;;;;;;18.20;99.90;;;;;;5046738;28;19904;-71
2022/07/07 13:43:33;;;;;;;;;;;18.40;99.90;;;;;;5050798;28;19915;-71
2022/07/07 13:45:58;;;;;;;;;;;18.50;99.90;;;;;;5046893;28;19931;-71
2022/07/07 13:48:24;;;;;;;;;;;18.60;99.90;;;;;;5044888;28;19915;-71
2022/07/07 13:50:52;;;;;;;;;;;18.70;99.90;;;;;;5046456;28;19913;-71
2022/07/07 13:53:17;;;;;;;;;;;18.60;99.90;;;;;;5039573;28;19951;-72
2022/07/07 13:55:43;;;;;;;;;;;18.60;99.90;;;;;;5050419;28;19959;-70
2022/07/07 13:58:08;;;;;;;;;;;18.60;99.90;;;;;;5057458;28;20286;-71
2022/07/07 14:00:34;;;;;;;;;;;18.70;99.90;;;;;;5055377;28;20340;-71
2022/07/07 14:03:00;;;;;;;;;;;18.70;99.90;;;;;;5052160;28;20007;-71
2022/07/07 14:05:26;;;;;;;;;;;18.90;99.90;;;;;;5043933;28;19908;-72
2022/07/07 14:07:51;;;;;;;;;;;18.90;99.90;;;;;;5042427;28;19967;-71
2022/07/07 14:10:18;;;;;;;;;;;18.90;99.90;;;;;;5046644;28;20651;-71
2022/07/07 14:12:44;;;;;;;;;;;18.90;99.90;;;;;;5040622;28;19916;-70
2022/07/07 14:15:10;;;;;;;;;;;18.80;99.90;;;;;;5023182;28;19910;-71
2022/07/07 14:17:36;;;;;;;;;;;18.70;99.90;;;;;;5015881;28;20347;-70
2022/07/07 14:20:03;;;;;;;;;;;18.40;99.90;;;;;;5016333;28;19910;-71
2022/07/07 14:22:28;;;;;;;;;;;18.40;99.90;;;;;;5016500;28;19917;-71